sensor_id;sensor_type;location;lat;lon;timestamp;temperature;humidity
60473;DHT22;46318;52.716;6.444;2023-06-19T00:02:10;23.50;50.30
60473;DHT22;46318;52.716;6.444;2023-06-19T00:04:36;23.50;50.20
60473;DHT22;46318;52.716;6.444;2023-06-19T00:07:04;23.50;50.10
60473;DHT22;46318;52.716;6.444;2023-06-19T00:09:30;23.50;50.00
60473;DHT22;46318;52.716;6.444;2023-06-19T00:11:56;23.50;49.90
60473;DHT22;46318;52.716;6.444;2023-06-19T00:14:21;23.50;49.90
60473;DHT22;46318;52.716;6.444;2023-06-19T00:16:47;23.50;49.90
60473;DHT22;46318;52.716;6.444;2023-06-19T00:19:13;23.50;49.90
60473;DHT22;46318;52.716;6.444;2023-06-19T00:21:39;23.50;50.00
60473;DHT22;46318;52.716;6.444;2023-06-19T00:24:05;23.50;50.00
60473;DHT22;46318;52.716;6.444;2023-06-19T00:26:31;23.50;50.00
60473;DHT22;46318;52.716;6.444;2023-06-19T00:28:57;23.50;50.00
60473;DHT22;46318;52.716;6.444;2023-06-19T00:31:23;23.50;50.10
60473;DHT22;46318;52.716;6.444;2023-06-19T00:33:53;23.50;50.10
60473;DHT22;46318;52.716;6.444;2023-06-19T00:36:19;23.50;50.20
60473;DHT22;46318;52.716;6.444;2023-06-19T00:38:47;23.40;50.20
60473;DHT22;46318;52.716;6.444;2023-06-19T00:41:15;23.40;50.30
60473;DHT22;46318;52.716;6.444;2023-06-19T00:43:42;23.40;50.30
60473;DHT22;46318;52.716;6.444;2023-06-19T00:46:08;23.40;50.40
60473;DHT22;46318;52.716;6.444;2023-06-19T00:48:35;23.40;50.50
60473;DHT22;46318;52.716;6.444;2023-06-19T00:51:01;23.40;50.60
60473;DHT22;46318;52.716;6.444;2023-06-19T00:53:27;23.40;50.60
60473;DHT22;46318;52.716;6.444;2023-06-19T00:55:55;23.40;50.60
60473;DHT22;46318;52.716;6.444;2023-06-19T00:58:22;23.40;50.70
60473;DHT22;46318;52.716;6.444;2023-06-19T01:00:48;23.30;50.70
60473;DHT22;46318;52.716;6.444;2023-06-19T01:03:17;23.30;50.80
60473;DHT22;46318;52.716;6.444;2023-06-19T01:05:44;23.30;50.90
60473;DHT22;46318;52.716;6.444;2023-06-19T01:10:59;23.30;51.00
60473;DHT22;46318;52.716;6.444;2023-06-19T01:13:47;23.30;51.10
60473;DHT22;46318;52.716;6.444;2023-06-19T01:16:16;23.30;51.00
60473;DHT22;46318;52.716;6.444;2023-06-19T01:18:43;23.30;51.10
60473;DHT22;46318;52.716;6.444;2023-06-19T01:21:17;23.30;51.20
60473;DHT22;46318;52.716;6.444;2023-06-19T01:23:45;23.30;51.30
60473;DHT22;46318;52.716;6.444;2023-06-19T01:26:11;23.30;51.40
60473;DHT22;46318;52.716;6.444;2023-06-19T01:28:41;23.30;51.50
60473;DHT22;46318;52.716;6.444;2023-06-19T01:31:35;23.20;51.60
60473;DHT22;46318;52.716;6.444;2023-06-19T01:34:06;23.30;51.70
60473;DHT22;46318;52.716;6.444;2023-06-19T01:36:34;23.20;51.80
60473;DHT22;46318;52.716;6.444;2023-06-19T01:39:01;23.20;51.80
60473;DHT22;46318;52.716;6.444;2023-06-19T01:41:28;23.20;51.90
60473;DHT22;46318;52.716;6.444;2023-06-19T01:43:57;23.20;51.90
60473;DHT22;46318;52.716;6.444;2023-06-19T01:46:23;23.30;51.90
60473;DHT22;46318;52.716;6.444;2023-06-19T01:48:49;23.20;52.00
60473;DHT22;46318;52.716;6.444;2023-06-19T01:51:16;23.20;52.10
60473;DHT22;46318;52.716;6.444;2023-06-19T01:53:42;23.20;52.20
60473;DHT22;46318;52.716;6.444;2023-06-19T01:56:08;23.20;52.30
60473;DHT22;46318;52.716;6.444;2023-06-19T01:58:34;23.20;52.40
60473;DHT22;46318;52.716;6.444;2023-06-19T02:00:59;23.20;52.60
60473;DHT22;46318;52.716;6.444;2023-06-19T02:03:28;23.20;52.60
60473;DHT22;46318;52.716;6.444;2023-06-19T02:05:53;23.10;52.80
60473;DHT22;46318;52.716;6.444;2023-06-19T02:08:19;23.10;52.90
60473;DHT22;46318;52.716;6.444;2023-06-19T02:10:45;23.10;53.10
60473;DHT22;46318;52.716;6.444;2023-06-19T02:13:11;23.10;53.30
60473;DHT22;46318;52.716;6.444;2023-06-19T02:15:37;23.10;53.30
60473;DHT22;46318;52.716;6.444;2023-06-19T02:18:04;23.00;53.50
60473;DHT22;46318;52.716;6.444;2023-06-19T02:20:31;23.00;53.80
60473;DHT22;46318;52.716;6.444;2023-06-19T02:22:57;23.00;54.00
60473;DHT22;46318;52.716;6.444;2023-06-19T02:25:23;23.00;54.20
60473;DHT22;46318;52.716;6.444;2023-06-19T02:27:49;23.00;54.70
60473;DHT22;46318;52.716;6.444;2023-06-19T02:30:18;23.00;54.70
60473;DHT22;46318;52.716;6.444;2023-06-19T02:32:43;23.00;55.00
60473;DHT22;46318;52.716;6.444;2023-06-19T02:35:10;23.00;55.10
60473;DHT22;46318;52.716;6.444;2023-06-19T02:37:37;22.90;55.40
60473;DHT22;46318;52.716;6.444;2023-06-19T02:40:06;22.90;55.70
60473;DHT22;46318;52.716;6.444;2023-06-19T02:42:34;22.90;55.80
60473;DHT22;46318;52.716;6.444;2023-06-19T02:45:00;22.90;56.10
60473;DHT22;46318;52.716;6.444;2023-06-19T02:47:32;22.90;56.20
60473;DHT22;46318;52.716;6.444;2023-06-19T02:50:02;22.90;56.50
60473;DHT22;46318;52.716;6.444;2023-06-19T02:52:30;22.90;56.60
60473;DHT22;46318;52.716;6.444;2023-06-19T02:54:56;22.80;56.60
60473;DHT22;46318;52.716;6.444;2023-06-19T02:57:22;22.80;56.80
60473;DHT22;46318;52.716;6.444;2023-06-19T02:59:48;22.80;57.00
60473;DHT22;46318;52.716;6.444;2023-06-19T03:02:14;22.80;57.20
60473;DHT22;46318;52.716;6.444;2023-06-19T03:04:40;22.80;57.50
60473;DHT22;46318;52.716;6.444;2023-06-19T03:07:06;22.80;57.50
60473;DHT22;46318;52.716;6.444;2023-06-19T03:09:32;22.80;57.70
60473;DHT22;46318;52.716;6.444;2023-06-19T03:11:58;22.80;57.70
60473;DHT22;46318;52.716;6.444;2023-06-19T03:14:24;22.70;57.90
60473;DHT22;46318;52.716;6.444;2023-06-19T03:16:50;22.70;58.10
60473;DHT22;46318;52.716;6.444;2023-06-19T03:19:19;22.70;58.30
60473;DHT22;46318;52.716;6.444;2023-06-19T03:21:46;22.70;58.40
60473;DHT22;46318;52.716;6.444;2023-06-19T03:24:11;22.60;58.60
60473;DHT22;46318;52.716;6.444;2023-06-19T03:26:37;22.60;59.00
60473;DHT22;46318;52.716;6.444;2023-06-19T03:29:03;22.60;59.20
60473;DHT22;46318;52.716;6.444;2023-06-19T03:31:29;22.50;59.50
60473;DHT22;46318;52.716;6.444;2023-06-19T03:33:56;22.50;59.70
60473;DHT22;46318;52.716;6.444;2023-06-19T03:36:22;22.50;59.80
60473;DHT22;46318;52.716;6.444;2023-06-19T03:38:48;22.40;60.10
60473;DHT22;46318;52.716;6.444;2023-06-19T03:41:14;22.40;60.30
60473;DHT22;46318;52.716;6.444;2023-06-19T03:43:40;22.40;60.80
60473;DHT22;46318;52.716;6.444;2023-06-19T03:46:06;22.30;61.10
60473;DHT22;46318;52.716;6.444;2023-06-19T03:48:32;22.30;61.50
60473;DHT22;46318;52.716;6.444;2023-06-19T03:50:59;22.20;61.80
60473;DHT22;46318;52.716;6.444;2023-06-19T03:53:25;22.20;62.10
60473;DHT22;46318;52.716;6.444;2023-06-19T03:55:51;22.20;62.20
60473;DHT22;46318;52.716;6.444;2023-06-19T03:58:16;22.10;62.50
60473;DHT22;46318;52.716;6.444;2023-06-19T04:00:45;22.10;62.80
60473;DHT22;46318;52.716;6.444;2023-06-19T04:03:11;22.00;62.90
60473;DHT22;46318;52.716;6.444;2023-06-19T04:05:37;22.00;63.10
60473;DHT22;46318;52.716;6.444;2023-06-19T04:08:04;21.90;63.80
60473;DHT22;46318;52.716;6.444;2023-06-19T04:10:30;21.90;64.10
60473;DHT22;46318;52.716;6.444;2023-06-19T04:12:56;21.80;64.20
60473;DHT22;46318;52.716;6.444;2023-06-19T04:15:22;21.80;64.20
60473;DHT22;46318;52.716;6.444;2023-06-19T04:17:49;21.80;64.30
60473;DHT22;46318;52.716;6.444;2023-06-19T04:20:15;21.80;64.60
60473;DHT22;46318;52.716;6.444;2023-06-19T04:22:41;21.70;64.80
60473;DHT22;46318;52.716;6.444;2023-06-19T04:25:08;21.70;64.80
60473;DHT22;46318;52.716;6.444;2023-06-19T04:27:36;21.60;65.20
60473;DHT22;46318;52.716;6.444;2023-06-19T04:30:03;21.60;65.60
60473;DHT22;46318;52.716;6.444;2023-06-19T04:32:30;21.60;65.90
60473;DHT22;46318;52.716;6.444;2023-06-19T04:34:56;21.50;65.90
60473;DHT22;46318;52.716;6.444;2023-06-19T04:37:22;21.50;66.30
60473;DHT22;46318;52.716;6.444;2023-06-19T04:39:48;21.50;66.40
60473;DHT22;46318;52.716;6.444;2023-06-19T04:42:17;21.40;66.80
60473;DHT22;46318;52.716;6.444;2023-06-19T04:44:45;21.40;66.80
60473;DHT22;46318;52.716;6.444;2023-06-19T04:47:16;21.40;66.90
60473;DHT22;46318;52.716;6.444;2023-06-19T04:49:45;21.40;67.30
60473;DHT22;46318;52.716;6.444;2023-06-19T04:52:11;21.40;67.70
60473;DHT22;46318;52.716;6.444;2023-06-19T04:54:38;21.30;67.80
60473;DHT22;46318;52.716;6.444;2023-06-19T04:57:04;21.30;68.10
60473;DHT22;46318;52.716;6.444;2023-06-19T04:59:30;21.30;68.30
60473;DHT22;46318;52.716;6.444;2023-06-19T05:01:57;21.30;68.40
60473;DHT22;46318;52.716;6.444;2023-06-19T05:04:24;21.30;68.40
60473;DHT22;46318;52.716;6.444;2023-06-19T05:06:53;21.30;68.60
60473;DHT22;46318;52.716;6.444;2023-06-19T05:09:18;21.30;68.80
60473;DHT22;46318;52.716;6.444;2023-06-19T05:11:48;21.40;69.10
60473;DHT22;46318;52.716;6.444;2023-06-19T05:14:16;21.40;69.30
60473;DHT22;46318;52.716;6.444;2023-06-19T05:16:42;21.40;69.60
60473;DHT22;46318;52.716;6.444;2023-06-19T05:19:08;21.40;69.50
60473;DHT22;46318;52.716;6.444;2023-06-19T05:21:34;21.40;69.70
60473;DHT22;46318;52.716;6.444;2023-06-19T05:24:00;21.40;69.80
60473;DHT22;46318;52.716;6.444;2023-06-19T05:26:29;21.40;70.10
60473;DHT22;46318;52.716;6.444;2023-06-19T05:28:55;21.50;70.00
60473;DHT22;46318;52.716;6.444;2023-06-19T05:31:24;21.50;69.90
60473;DHT22;46318;52.716;6.444;2023-06-19T05:33:49;21.50;70.00
60473;DHT22;46318;52.716;6.444;2023-06-19T05:36:16;21.50;70.10
60473;DHT22;46318;52.716;6.444;2023-06-19T05:38:42;21.50;70.40
60473;DHT22;46318;52.716;6.444;2023-06-19T05:41:13;21.50;70.30
60473;DHT22;46318;52.716;6.444;2023-06-19T05:43:44;21.50;70.60
60473;DHT22;46318;52.716;6.444;2023-06-19T05:46:13;21.50;70.80
60473;DHT22;46318;52.716;6.444;2023-06-19T05:48:39;21.50;70.90
60473;DHT22;46318;52.716;6.444;2023-06-19T05:51:04;21.60;70.90
60473;DHT22;46318;52.716;6.444;2023-06-19T05:53:33;21.60;70.90
60473;DHT22;46318;52.716;6.444;2023-06-19T05:55:59;21.70;71.00
60473;DHT22;46318;52.716;6.444;2023-06-19T05:58:25;21.70;71.10
60473;DHT22;46318;52.716;6.444;2023-06-19T06:01:04;21.70;71.30
60473;DHT22;46318;52.716;6.444;2023-06-19T06:03:39;21.70;71.40
60473;DHT22;46318;52.716;6.444;2023-06-19T06:06:07;21.70;71.50
60473;DHT22;46318;52.716;6.444;2023-06-19T06:08:39;21.80;71.40
60473;DHT22;46318;52.716;6.444;2023-06-19T06:11:07;21.80;71.50
60473;DHT22;46318;52.716;6.444;2023-06-19T06:13:33;21.80;71.40
60473;DHT22;46318;52.716;6.444;2023-06-19T06:15:59;21.80;71.50
60473;DHT22;46318;52.716;6.444;2023-06-19T06:18:25;21.80;71.80
60473;DHT22;46318;52.716;6.444;2023-06-19T06:20:51;21.80;72.10
60473;DHT22;46318;52.716;6.444;2023-06-19T06:23:20;21.80;72.20
60473;DHT22;46318;52.716;6.444;2023-06-19T06:25:49;21.80;72.60
60473;DHT22;46318;52.716;6.444;2023-06-19T06:28:16;21.80;72.70
60473;DHT22;46318;52.716;6.444;2023-06-19T06:30:44;21.80;72.60
60473;DHT22;46318;52.716;6.444;2023-06-19T06:33:26;21.70;72.70
60473;DHT22;46318;52.716;6.444;2023-06-19T06:36:19;21.80;72.60
60473;DHT22;46318;52.716;6.444;2023-06-19T06:38:45;21.70;72.60
60473;DHT22;46318;52.716;6.444;2023-06-19T06:41:11;21.70;72.60
60473;DHT22;46318;52.716;6.444;2023-06-19T06:43:37;21.80;72.80
60473;DHT22;46318;52.716;6.444;2023-06-19T06:46:07;21.80;72.90
60473;DHT22;46318;52.716;6.444;2023-06-19T06:48:53;21.80;72.90
60473;DHT22;46318;52.716;6.444;2023-06-19T06:51:24;21.80;73.30
60473;DHT22;46318;52.716;6.444;2023-06-19T06:54:13;21.80;72.90
60473;DHT22;46318;52.716;6.444;2023-06-19T06:56:39;21.80;73.30
60473;DHT22;46318;52.716;6.444;2023-06-19T06:59:13;21.80;73.10
60473;DHT22;46318;52.716;6.444;2023-06-19T07:01:46;21.80;73.00
60473;DHT22;46318;52.716;6.444;2023-06-19T07:04:13;21.90;73.10
60473;DHT22;46318;52.716;6.444;2023-06-19T07:06:39;21.90;73.00
60473;DHT22;46318;52.716;6.444;2023-06-19T07:09:11;21.90;72.80
60473;DHT22;46318;52.716;6.444;2023-06-19T07:11:37;21.90;72.60
60473;DHT22;46318;52.716;6.444;2023-06-19T07:14:03;21.90;72.50
60473;DHT22;46318;52.716;6.444;2023-06-19T07:19:27;21.90;72.60
60473;DHT22;46318;52.716;6.444;2023-06-19T07:21:56;21.90;72.90
60473;DHT22;46318;52.716;6.444;2023-06-19T07:24:25;21.90;72.90
60473;DHT22;46318;52.716;6.444;2023-06-19T07:26:51;21.80;72.60
60473;DHT22;46318;52.716;6.444;2023-06-19T07:29:17;21.80;72.60
60473;DHT22;46318;52.716;6.444;2023-06-19T07:31:43;21.80;72.30
60473;DHT22;46318;52.716;6.444;2023-06-19T07:34:09;21.80;72.10
60473;DHT22;46318;52.716;6.444;2023-06-19T07:36:35;21.80;71.70
60473;DHT22;46318;52.716;6.444;2023-06-19T07:39:01;21.80;71.80
60473;DHT22;46318;52.716;6.444;2023-06-19T07:41:31;21.80;71.70
60473;DHT22;46318;52.716;6.444;2023-06-19T07:43:57;21.80;71.60
60473;DHT22;46318;52.716;6.444;2023-06-19T07:46:22;21.80;71.50
60473;DHT22;46318;52.716;6.444;2023-06-19T07:48:49;21.80;71.30
60473;DHT22;46318;52.716;6.444;2023-06-19T07:51:18;21.80;71.00
60473;DHT22;46318;52.716;6.444;2023-06-19T07:53:44;21.80;70.90
60473;DHT22;46318;52.716;6.444;2023-06-19T07:56:10;21.80;71.00
60473;DHT22;46318;52.716;6.444;2023-06-19T07:58:36;21.90;70.90
60473;DHT22;46318;52.716;6.444;2023-06-19T08:01:20;21.90;70.90
60473;DHT22;46318;52.716;6.444;2023-06-19T08:03:46;21.90;70.90
60473;DHT22;46318;52.716;6.444;2023-06-19T08:06:12;21.90;70.80
60473;DHT22;46318;52.716;6.444;2023-06-19T08:08:38;22.00;70.50
60473;DHT22;46318;52.716;6.444;2023-06-19T08:11:04;22.00;69.80
60473;DHT22;46318;52.716;6.444;2023-06-19T08:13:30;22.00;69.90
60473;DHT22;46318;52.716;6.444;2023-06-19T08:15:56;22.10;70.00
60473;DHT22;46318;52.716;6.444;2023-06-19T08:18:22;22.10;69.90
60473;DHT22;46318;52.716;6.444;2023-06-19T08:20:48;22.10;70.00
60473;DHT22;46318;52.716;6.444;2023-06-19T08:23:14;22.10;69.90
60473;DHT22;46318;52.716;6.444;2023-06-19T08:25:43;22.10;69.70
60473;DHT22;46318;52.716;6.444;2023-06-19T08:28:09;22.10;69.60
60473;DHT22;46318;52.716;6.444;2023-06-19T08:30:35;22.20;69.40
60473;DHT22;46318;52.716;6.444;2023-06-19T08:33:06;22.10;69.20
60473;DHT22;46318;52.716;6.444;2023-06-19T08:35:35;22.20;69.00
60473;DHT22;46318;52.716;6.444;2023-06-19T08:38:04;22.20;68.50
60473;DHT22;46318;52.716;6.444;2023-06-19T08:40:33;22.20;68.30
60473;DHT22;46318;52.716;6.444;2023-06-19T08:42:59;22.30;67.90
60473;DHT22;46318;52.716;6.444;2023-06-19T08:45:26;22.30;67.20
60473;DHT22;46318;52.716;6.444;2023-06-19T08:48:03;22.30;66.70
60473;DHT22;46318;52.716;6.444;2023-06-19T08:50:34;22.40;66.70
60473;DHT22;46318;52.716;6.444;2023-06-19T08:53:00;22.40;66.80
60473;DHT22;46318;52.716;6.444;2023-06-19T08:55:29;22.40;66.40
60473;DHT22;46318;52.716;6.444;2023-06-19T08:57:55;22.50;65.90
60473;DHT22;46318;52.716;6.444;2023-06-19T09:00:27;22.60;65.40
60473;DHT22;46318;52.716;6.444;2023-06-19T09:03:00;22.60;64.80
60473;DHT22;46318;52.716;6.444;2023-06-19T09:05:27;22.70;64.80
60473;DHT22;46318;52.716;6.444;2023-06-19T09:07:59;22.80;64.50
60473;DHT22;46318;52.716;6.444;2023-06-19T09:10:28;22.70;63.90
60473;DHT22;46318;52.716;6.444;2023-06-19T09:12:59;22.80;63.90
60473;DHT22;46318;52.716;6.444;2023-06-19T09:15:27;22.80;63.90
60473;DHT22;46318;52.716;6.444;2023-06-19T09:18:22;22.90;63.20
60473;DHT22;46318;52.716;6.444;2023-06-19T09:21:36;23.00;63.20
60473;DHT22;46318;52.716;6.444;2023-06-19T09:24:10;23.10;63.30
60473;DHT22;46318;52.716;6.444;2023-06-19T09:26:36;23.10;62.90
60473;DHT22;46318;52.716;6.444;2023-06-19T09:29:13;23.20;62.90
60473;DHT22;46318;52.716;6.444;2023-06-19T09:31:41;23.20;62.80
60473;DHT22;46318;52.716;6.444;2023-06-19T09:34:08;23.10;63.10
60473;DHT22;46318;52.716;6.444;2023-06-19T09:36:35;23.10;63.00
60473;DHT22;46318;52.716;6.444;2023-06-19T09:39:04;23.20;63.40
60473;DHT22;46318;52.716;6.444;2023-06-19T09:41:30;23.20;63.10
60473;DHT22;46318;52.716;6.444;2023-06-19T09:44:06;23.30;63.10
60473;DHT22;46318;52.716;6.444;2023-06-19T09:47:19;23.40;63.00
60473;DHT22;46318;52.716;6.444;2023-06-19T09:49:56;23.40;62.50
60473;DHT22;46318;52.716;6.444;2023-06-19T09:52:28;23.40;62.10
60473;DHT22;46318;52.716;6.444;2023-06-19T09:54:55;23.40;62.80
60473;DHT22;46318;52.716;6.444;2023-06-19T09:57:26;23.50;62.70
60473;DHT22;46318;52.716;6.444;2023-06-19T09:59:55;23.40;62.40
60473;DHT22;46318;52.716;6.444;2023-06-19T10:02:22;23.40;62.30
60473;DHT22;46318;52.716;6.444;2023-06-19T10:04:55;23.40;62.30
60473;DHT22;46318;52.716;6.444;2023-06-19T10:07:32;23.40;62.20
60473;DHT22;46318;52.716;6.444;2023-06-19T10:12:47;23.30;62.60
60473;DHT22;46318;52.716;6.444;2023-06-19T10:15:17;23.30;62.10
60473;DHT22;46318;52.716;6.444;2023-06-19T10:17:52;23.30;62.10
60473;DHT22;46318;52.716;6.444;2023-06-19T10:20:28;23.30;62.00
60473;DHT22;46318;52.716;6.444;2023-06-19T10:23:10;23.30;61.80
60473;DHT22;46318;52.716;6.444;2023-06-19T10:26:00;23.20;61.60
60473;DHT22;46318;52.716;6.444;2023-06-19T10:28:33;23.20;61.70
60473;DHT22;46318;52.716;6.444;2023-06-19T10:31:03;23.30;61.60
60473;DHT22;46318;52.716;6.444;2023-06-19T10:33:36;23.30;61.80
60473;DHT22;46318;52.716;6.444;2023-06-19T10:36:22;23.40;61.80
60473;DHT22;46318;52.716;6.444;2023-06-19T10:38:53;23.50;61.40
60473;DHT22;46318;52.716;6.444;2023-06-19T10:41:21;23.60;61.30
60473;DHT22;46318;52.716;6.444;2023-06-19T10:44:06;23.60;61.20
60473;DHT22;46318;52.716;6.444;2023-06-19T10:46:47;23.80;60.40
60473;DHT22;46318;52.716;6.444;2023-06-19T10:49:18;23.80;60.00
60473;DHT22;46318;52.716;6.444;2023-06-19T10:51:44;23.90;60.00
60473;DHT22;46318;52.716;6.444;2023-06-19T10:54:11;23.90;59.60
60473;DHT22;46318;52.716;6.444;2023-06-19T10:56:37;24.00;59.20
60473;DHT22;46318;52.716;6.444;2023-06-19T10:59:09;24.10;59.20
60473;DHT22;46318;52.716;6.444;2023-06-19T11:01:49;24.10;59.10
60473;DHT22;46318;52.716;6.444;2023-06-19T11:04:16;24.20;59.20
60473;DHT22;46318;52.716;6.444;2023-06-19T11:06:45;24.30;59.00
60473;DHT22;46318;52.716;6.444;2023-06-19T11:09:13;24.40;58.80
60473;DHT22;46318;52.716;6.444;2023-06-19T11:11:44;24.40;58.90
60473;DHT22;46318;52.716;6.444;2023-06-19T11:14:20;24.40;58.80
60473;DHT22;46318;52.716;6.444;2023-06-19T11:16:49;24.40;58.90
60473;DHT22;46318;52.716;6.444;2023-06-19T11:19:18;24.40;58.70
60473;DHT22;46318;52.716;6.444;2023-06-19T11:21:48;24.40;58.40
60473;DHT22;46318;52.716;6.444;2023-06-19T11:24:19;24.40;58.60
60473;DHT22;46318;52.716;6.444;2023-06-19T11:26:47;24.40;58.30
60473;DHT22;46318;52.716;6.444;2023-06-19T11:29:21;24.50;58.60
60473;DHT22;46318;52.716;6.444;2023-06-19T11:31:49;24.50;58.30
60473;DHT22;46318;52.716;6.444;2023-06-19T11:34:32;24.50;58.60
60473;DHT22;46318;52.716;6.444;2023-06-19T11:36:59;24.60;58.60
60473;DHT22;46318;52.716;6.444;2023-06-19T11:39:25;24.60;58.50
60473;DHT22;46318;52.716;6.444;2023-06-19T11:41:54;24.70;58.30
60473;DHT22;46318;52.716;6.444;2023-06-19T11:44:20;24.70;58.40
60473;DHT22;46318;52.716;6.444;2023-06-19T11:46:46;24.80;58.30
60473;DHT22;46318;52.716;6.444;2023-06-19T11:49:17;24.90;58.00
60473;DHT22;46318;52.716;6.444;2023-06-19T11:51:54;24.90;57.90
60473;DHT22;46318;52.716;6.444;2023-06-19T11:54:19;25.00;57.50
60473;DHT22;46318;52.716;6.444;2023-06-19T11:56:46;25.00;57.60
60473;DHT22;46318;52.716;6.444;2023-06-19T11:59:15;25.00;57.40
60473;DHT22;46318;52.716;6.444;2023-06-19T12:01:44;25.00;57.50
60473;DHT22;46318;52.716;6.444;2023-06-19T12:04:12;25.10;58.00
60473;DHT22;46318;52.716;6.444;2023-06-19T12:06:41;25.20;57.70
60473;DHT22;46318;52.716;6.444;2023-06-19T12:09:10;25.20;57.40
60473;DHT22;46318;52.716;6.444;2023-06-19T12:11:37;25.30;57.40
60473;DHT22;46318;52.716;6.444;2023-06-19T12:14:06;25.40;57.10
60473;DHT22;46318;52.716;6.444;2023-06-19T12:16:32;25.50;57.00
60473;DHT22;46318;52.716;6.444;2023-06-19T12:18:58;25.60;56.80
60473;DHT22;46318;52.716;6.444;2023-06-19T12:21:26;25.70;56.60
60473;DHT22;46318;52.716;6.444;2023-06-19T12:23:52;25.70;56.50
60473;DHT22;46318;52.716;6.444;2023-06-19T12:26:32;25.80;55.90
60473;DHT22;46318;52.716;6.444;2023-06-19T12:29:03;25.80;55.50
60473;DHT22;46318;52.716;6.444;2023-06-19T12:31:30;25.80;55.80
60473;DHT22;46318;52.716;6.444;2023-06-19T12:33:58;25.80;55.50
60473;DHT22;46318;52.716;6.444;2023-06-19T12:36:27;25.80;55.60
60473;DHT22;46318;52.716;6.444;2023-06-19T12:39:00;25.90;55.70
60473;DHT22;46318;52.716;6.444;2023-06-19T12:41:45;26.00;55.50
60473;DHT22;46318;52.716;6.444;2023-06-19T12:44:11;26.00;55.10
60473;DHT22;46318;52.716;6.444;2023-06-19T12:46:38;26.00;55.40
60473;DHT22;46318;52.716;6.444;2023-06-19T12:49:10;26.00;55.80
60473;DHT22;46318;52.716;6.444;2023-06-19T12:51:38;26.00;55.70
60473;DHT22;46318;52.716;6.444;2023-06-19T12:54:04;26.10;55.70
60473;DHT22;46318;52.716;6.444;2023-06-19T12:56:33;26.20;55.20
60473;DHT22;46318;52.716;6.444;2023-06-19T12:59:02;26.30;54.80
60473;DHT22;46318;52.716;6.444;2023-06-19T13:01:28;26.30;54.70
60473;DHT22;46318;52.716;6.444;2023-06-19T13:04:01;26.40;54.60
60473;DHT22;46318;52.716;6.444;2023-06-19T13:06:32;26.50;54.00
60473;DHT22;46318;52.716;6.444;2023-06-19T13:09:04;26.60;53.50
60473;DHT22;46318;52.716;6.444;2023-06-19T13:11:36;26.70;53.30
60473;DHT22;46318;52.716;6.444;2023-06-19T13:14:08;26.80;53.30
60473;DHT22;46318;52.716;6.444;2023-06-19T13:17:03;26.90;53.00
60473;DHT22;46318;52.716;6.444;2023-06-19T13:19:29;26.90;53.00
60473;DHT22;46318;52.716;6.444;2023-06-19T13:22:03;26.80;52.90
60473;DHT22;46318;52.716;6.444;2023-06-19T13:24:29;26.80;52.90
60473;DHT22;46318;52.716;6.444;2023-06-19T13:26:55;26.80;53.20
60473;DHT22;46318;52.716;6.444;2023-06-19T13:29:23;27.00;53.20
60473;DHT22;46318;52.716;6.444;2023-06-19T13:31:52;27.10;52.70
60473;DHT22;46318;52.716;6.444;2023-06-19T13:34:24;27.20;52.60
60473;DHT22;46318;52.716;6.444;2023-06-19T13:36:52;27.30;52.60
60473;DHT22;46318;52.716;6.444;2023-06-19T13:39:20;27.30;52.50
60473;DHT22;46318;52.716;6.444;2023-06-19T13:41:50;27.40;51.90
60473;DHT22;46318;52.716;6.444;2023-06-19T13:44:24;27.50;51.70
60473;DHT22;46318;52.716;6.444;2023-06-19T13:46:51;27.50;51.30
60473;DHT22;46318;52.716;6.444;2023-06-19T13:49:19;27.60;51.30
60473;DHT22;46318;52.716;6.444;2023-06-19T13:51:45;27.70;50.80
60473;DHT22;46318;52.716;6.444;2023-06-19T13:54:14;27.70;50.70
60473;DHT22;46318;52.716;6.444;2023-06-19T13:56:40;27.70;50.30
60473;DHT22;46318;52.716;6.444;2023-06-19T13:59:08;27.70;50.00
60473;DHT22;46318;52.716;6.444;2023-06-19T14:01:48;27.70;49.60
60473;DHT22;46318;52.716;6.444;2023-06-19T14:04:14;27.70;49.30
60473;DHT22;46318;52.716;6.444;2023-06-19T14:06:45;27.70;49.20
60473;DHT22;46318;52.716;6.444;2023-06-19T14:09:29;27.70;48.10
60473;DHT22;46318;52.716;6.444;2023-06-19T14:14:58;27.70;47.50
60473;DHT22;46318;52.716;6.444;2023-06-19T14:17:26;27.70;47.70
60473;DHT22;46318;52.716;6.444;2023-06-19T14:19:52;27.70;47.60
60473;DHT22;46318;52.716;6.444;2023-06-19T14:22:19;27.80;47.50
60473;DHT22;46318;52.716;6.444;2023-06-19T14:24:45;27.70;47.90
60473;DHT22;46318;52.716;6.444;2023-06-19T14:27:11;27.70;47.70
60473;DHT22;46318;52.716;6.444;2023-06-19T14:29:38;27.70;47.90
60473;DHT22;46318;52.716;6.444;2023-06-19T14:32:06;27.70;47.90
60473;DHT22;46318;52.716;6.444;2023-06-19T14:34:32;27.80;47.40
60473;DHT22;46318;52.716;6.444;2023-06-19T14:37:06;27.80;46.50
60473;DHT22;46318;52.716;6.444;2023-06-19T14:39:32;27.80;46.00
60473;DHT22;46318;52.716;6.444;2023-06-19T14:41:58;27.80;46.00
60473;DHT22;46318;52.716;6.444;2023-06-19T14:44:24;27.80;44.90
60473;DHT22;46318;52.716;6.444;2023-06-19T14:46:50;27.80;44.30
60473;DHT22;46318;52.716;6.444;2023-06-19T14:49:23;27.80;44.80
60473;DHT22;46318;52.716;6.444;2023-06-19T14:51:49;27.80;45.00
60473;DHT22;46318;52.716;6.444;2023-06-19T14:54:15;27.80;44.40
60473;DHT22;46318;52.716;6.444;2023-06-19T14:56:47;27.80;43.10
60473;DHT22;46318;52.716;6.444;2023-06-19T14:59:16;27.80;43.30
60473;DHT22;46318;52.716;6.444;2023-06-19T15:01:44;27.80;43.10
60473;DHT22;46318;52.716;6.444;2023-06-19T15:04:10;27.80;42.90
60473;DHT22;46318;52.716;6.444;2023-06-19T15:06:37;27.90;42.20
60473;DHT22;46318;52.716;6.444;2023-06-19T15:09:03;27.90;41.90
60473;DHT22;46318;52.716;6.444;2023-06-19T15:11:29;28.00;42.40
60473;DHT22;46318;52.716;6.444;2023-06-19T15:13:55;27.90;43.00
60473;DHT22;46318;52.716;6.444;2023-06-19T15:16:21;28.00;42.90
60473;DHT22;46318;52.716;6.444;2023-06-19T15:18:48;28.10;43.10
60473;DHT22;46318;52.716;6.444;2023-06-19T15:21:16;28.10;43.40
60473;DHT22;46318;52.716;6.444;2023-06-19T15:23:43;28.20;43.50
60473;DHT22;46318;52.716;6.444;2023-06-19T15:26:09;28.20;43.60
60473;DHT22;46318;52.716;6.444;2023-06-19T15:28:35;28.20;43.80
60473;DHT22;46318;52.716;6.444;2023-06-19T15:31:02;28.20;44.00
60473;DHT22;46318;52.716;6.444;2023-06-19T15:33:29;28.30;43.60
60473;DHT22;46318;52.716;6.444;2023-06-19T15:35:57;28.30;43.00
60473;DHT22;46318;52.716;6.444;2023-06-19T15:38:23;28.30;42.60
60473;DHT22;46318;52.716;6.444;2023-06-19T15:40:49;28.30;42.80
60473;DHT22;46318;52.716;6.444;2023-06-19T15:43:15;28.30;42.80
60473;DHT22;46318;52.716;6.444;2023-06-19T15:45:43;28.30;42.90
60473;DHT22;46318;52.716;6.444;2023-06-19T15:48:09;28.30;43.30
60473;DHT22;46318;52.716;6.444;2023-06-19T15:50:35;28.40;43.60
60473;DHT22;46318;52.716;6.444;2023-06-19T15:53:01;28.40;43.40